datoshorarios_respira

Este recurso contiene el identificador de cada estación RESPIRA y todos sus datos dinámicos para cada hora. No contiene el resto de atributos estáticos.

RESPIRA FIWARE es un dispositivo abierto IoT diseñado para monitorizar temperatura ambiente, humedad relativa y concentraciones de NO2 y de partículas en exteriores. Este dispositivo transmite niveles y concentraciones a una plataforma FIWARE central. Esta plataforma central es en su origen nuestro ecosistema RESPIRA IoT medioambiental desplegado para la provincia de Badajoz. https://panstamp.github.io/respira_fiware/docs/es/INDEX.html

Puede DESCARGAR el recurso de AQUÍ en formato CSV: https://datosabiertos.dip-badajoz.es/datastore/dump/b97deedd-30a7-441f-a45c-c9b44a973d62

Puede DESCARGAR el recurso de AQUÍ en formato Excel-compatible: https://datosabiertos.dip-badajoz.es/datastore/dump/b97deedd-30a7-441f-a45c-c9b44a973d62?bom=true

Puede DESCARGAR el recurso de AQUÍ en formato XML: https://datosabiertos.dip-badajoz.es/datastore/dump/b97deedd-30a7-441f-a45c-c9b44a973d62?format=xml

Embed

Vista básica que en formato tabla muestra solo parte de los datos estructurados. Para su consulta COMPLETA debe descargarse el recurso

_id recvTime fiwareServicePath entityType entityId TimeInstant TimeInstant_md NO2 NO2_md PM10 PM10_md PM1.0 PM1.0_md PM2.5 PM2.5_md PM4.0 PM4.0_md humidity humidity_md temperature temperature_md typicalSize typicalSize_md
95329 2021-07-24T03:23:03 /envAirQualityRESPIRA3 RESPIRA RESPIRA:RESPIRA_A4CF12755848 2021-07-24T03:23:03 None 11.92 None 2.29 None 2.16 None 2.28 None 2.28 None 54.55 None 21.1 None 0.57 None
95330 2021-07-24T03:23:05 /envAirQualityRESPIRA3 RESPIRA RESPIRA:RESPIRA_246F28179F74 2021-07-24T03:23:04 None 12.88 None 1.24 None 1.17 None 1.24 None 1.24 None 44.77 None 23.64 None 0.54 None
95331 2021-07-24T03:23:43 /envAirQualityRESPIRA3 RESPIRA RESPIRA:RESPIRA_A4CF12758438 2021-07-24T03:23:43 None 31.98 None 2.05 None 1.93 None 2.05 None 2.05 None 57.27 None 21.41 None 0.6 None
95333 2021-07-24T03:28:19 /envAirQualityRESPIRA3 RESPIRA RESPIRA:RESPIRA_807D3AF39F6C 2021-07-24T03:28:19 None 130.66 None 2.71 None 2.56 None 2.71 None 2.71 None 14.26 None 17.75 None 0.55 None
95334 2021-07-24T03:30:06 /envAirQualityRESPIRA3 RESPIRA RESPIRA:RESPIRA_A4CF12755D90 2021-07-24T03:30:05 None 7.55 None 2.76 None 2.6 None 2.76 None 2.76 None 63 None 21.24 None 0.59 None
95337 2021-07-24T03:41:08 /envAirQualityRESPIRA3 RESPIRA RESPIRA:RESPIRA_30AEA4F1B87C 2021-07-24T03:41:08 None 85.38 None 2.92 None 2.76 None 2.92 None 2.92 None 72.53 None 19.08 None 0.61 None
95340 2021-07-24T04:07:28 /envAirQualityRESPIRA3 RESPIRA RESPIRA:RESPIRA_A4CF12755A8C 2021-07-24T04:07:28 None 32.03 None 1.36 None 1.29 None 1.36 None 1.36 None 53.24 None 20.49 None 0.52 None
95341 2021-07-24T04:08:12 /envAirQualityRESPIRA3 RESPIRA RESPIRA:RESPIRA_A4CF1275659C 2021-07-24T04:08:12 None 31.41 None 1.86 None 1.76 None 1.86 None 1.86 None 55.85 None 20.63 None 0.58 None
95343 2021-07-24T04:10:11 /envAirQualityRESPIRA3 RESPIRA RESPIRA:RESPIRA_807D3AF39910 2021-07-24T04:10:11 None 25.51 None 1.74 None 1.64 None 1.74 None 1.74 None 36.85 None 30.72 None 0.56 None
95344 2021-07-24T04:11:20 /envAirQualityRESPIRA3 RESPIRA RESPIRA:RESPIRA_A4CF1275559C 2021-07-24T04:11:20 None 46.75 None 3.06 None 2.88 None 3.06 None 3.06 None 80.11 None 17.33 None 0.66 None
95350 2021-07-24T04:19:56 /envAirQualityRESPIRA3 RESPIRA RESPIRA:RESPIRA_240AC4A26E00 2021-07-24T04:19:56 None 568 None 3.11 None 2.93 None 3.11 None 3.11 None 84.89 None 16 None 0.59 None
95346 2021-07-24T04:17:23 /envAirQualityRESPIRA3 RESPIRA RESPIRA:RESPIRA_A4CF1272B60C 2021-07-24T04:17:23 None 118.94 None 2.22 None 2.11 None 2.13 None 2.14 None 59.25 None 21.2 None 0.53 None
95347 2021-07-24T04:18:24 /envAirQualityRESPIRA3 RESPIRA RESPIRA:RESPIRA_240AC4A3EBF8 2021-07-24T04:18:23 None 274.4 None 3.12 None 2.91 None 3.11 None 3.12 None 71.47 None 20.06 None 0.62 None
95348 2021-07-24T04:19:32 /envAirQualityRESPIRA3 RESPIRA RESPIRA:RESPIRA_807D3AF3AB0C 2021-07-24T04:19:32 None 0 None 3.43 None 3.24 None 3.43 None 3.43 None 112.92 None 18.32 None 0.64 None
95349 2021-07-24T04:19:49 /envAirQualityRESPIRA3 RESPIRA RESPIRA:RESPIRA_A4CF12752890 2021-07-24T04:19:49 None 69.33 None 2.94 None 2.76 None 2.93 None 2.94 None 51.08 None 24.5 None 0.58 None
95351 2021-07-24T04:23:03 /envAirQualityRESPIRA3 RESPIRA RESPIRA:RESPIRA_A4CF12755848 2021-07-24T04:23:03 None 10.04 None 2.23 None 2.1 None 2.23 None 2.23 None 57.45 None 20.31 None 0.56 None
95353 2021-07-24T04:23:43 /envAirQualityRESPIRA3 RESPIRA RESPIRA:RESPIRA_A4CF12758438 2021-07-24T04:23:43 None 33.87 None 2.03 None 1.9 None 2.02 None 2.02 None 60.11 None 20.64 None 0.62 None
95357 2021-07-24T04:34:31 /envAirQualityRESPIRA3 RESPIRA RESPIRA:RESPIRA_807D3AF39F6C 2021-07-24T04:34:30 None 115.61 None 10.24 None 4.81 None 7.7 None 9.82 None 2.96 None 16.98 None 0.63 None
95359 2021-07-24T04:41:09 /envAirQualityRESPIRA3 RESPIRA RESPIRA:RESPIRA_30AEA4F1B87C 2021-07-24T04:41:09 None 89.14 None 2.59 None 2.45 None 2.59 None 2.59 None 74.32 None 18.64 None 0.59 None
95360 2021-07-24T05:05:35 /envAirQualityRESPIRA3 RESPIRA RESPIRA:RESPIRA_807D3AF39838 2021-07-24T05:05:35 None 0 None 6.36 None 5.98 None 6.34 None 6.35 None 96.18 None 17.38 None 0.62 None
95361 2021-07-24T05:05:36 /envAirQualityRESPIRA3 RESPIRA RESPIRA:RESPIRA_A4CF1272ACE4 2021-07-24T05:05:36 None 0 None 2.72 None 2.56 None 2.71 None 2.72 None 64.74 None 18.47 None 0.58 None
95362 2021-07-24T05:07:29 /envAirQualityRESPIRA3 RESPIRA RESPIRA:RESPIRA_A4CF12755A8C 2021-07-24T05:07:29 None 28.27 None 1.2 None 1.14 None 1.2 None 1.2 None 53.83 None 20.42 None 0.53 None
95352 2021-07-24T04:23:06 /envAirQualityRESPIRA3 RESPIRA RESPIRA:RESPIRA_246F28179F74 2021-07-24T04:23:05 None 14.77 None 1.13 None 1.07 None 1.13 None 1.13 None 44.99 None 23.63 None 0.55 None
95354 2021-07-24T04:28:21 /envAirQualityRESPIRA3 RESPIRA RESPIRA:RESPIRA_A4CF127501F8 2021-07-24T04:28:21 None 35.75 None 2.55 None 2.41 None 2.55 None 2.55 None 68.68 None 21.03 None 0.61 None
95355 2021-07-24T04:30:06 /envAirQualityRESPIRA3 RESPIRA RESPIRA:RESPIRA_A4CF12755D90 2021-07-24T04:30:06 None 7.55 None 2.93 None 2.77 None 2.93 None 2.93 None 67.31 None 20.16 None 0.59 None
95356 2021-07-24T04:33:52 /envAirQualityRESPIRA3 RESPIRA RESPIRA:RESPIRA_807D3AF398EC 2021-07-24T04:33:52 None 52.73 None 2.42 None 2.28 None 2.41 None 2.42 None 85.49 None 16.89 None 0.6 None
95358 2021-07-24T04:35:45 /envAirQualityRESPIRA3 RESPIRA RESPIRA:RESPIRA_807D3AF35A5C 2021-07-24T04:35:44 None 0 None 3.17 None 2.99 None 3.17 None 3.17 None 78.48 None 17.25 None 0.59 None
95365 2021-07-24T05:10:12 /envAirQualityRESPIRA3 RESPIRA RESPIRA:RESPIRA_807D3AF39910 2021-07-24T05:10:12 None 27.39 None 1.78 None 1.68 None 1.78 None 1.78 None 37.13 None 30.61 None 0.53 None
95366 2021-07-24T05:11:21 /envAirQualityRESPIRA3 RESPIRA RESPIRA:RESPIRA_A4CF1275559C 2021-07-24T05:11:20 None 46.75 None 3.43 None 3.22 None 3.42 None 3.43 None 85.62 None 16.59 None 0.62 None
95370 2021-07-24T05:19:33 /envAirQualityRESPIRA3 RESPIRA RESPIRA:RESPIRA_807D3AF3AB0C 2021-07-24T05:19:33 None 0 None 3.3 None 3.12 None 3.3 None 3.3 None 114.34 None 17.99 None 0.61 None
95371 2021-07-24T05:19:49 /envAirQualityRESPIRA3 RESPIRA RESPIRA:RESPIRA_A4CF12752890 2021-07-24T05:19:49 None 67.44 None 3.07 None 2.88 None 3.06 None 3.06 None 53.64 None 23.72 None 0.57 None
95372 2021-07-24T05:19:56 /envAirQualityRESPIRA3 RESPIRA RESPIRA:RESPIRA_240AC4A26E00 2021-07-24T05:19:56 None 1422.16 None 3.49 None 3.28 None 3.48 None 3.49 None 90.47 None 15.54 None 0.6 None
95373 2021-07-24T05:23:04 /envAirQualityRESPIRA3 RESPIRA RESPIRA:RESPIRA_A4CF12755848 2021-07-24T05:23:04 None 13.81 None 2.28 None 2.14 None 2.27 None 2.28 None 61.23 None 19.34 None 0.61 None
95363 2021-07-24T05:08:13 /envAirQualityRESPIRA3 RESPIRA RESPIRA:RESPIRA_A4CF1275659C 2021-07-24T05:08:13 None 35.18 None 1.61 None 1.52 None 1.61 None 1.61 None 55.79 None 20.62 None 0.58 None
95364 2021-07-24T05:09:10 /envAirQualityRESPIRA3 RESPIRA RESPIRA:RESPIRA_A4CF12750498 2021-07-24T05:09:10 None 1.88 None 2.87 None 2.71 None 2.87 None 2.87 None 71.87 None 20.04 None 0.57 None
95367 2021-07-24T05:17:08 /envAirQualityRESPIRA3 RESPIRA RESPIRA:RESPIRA_30AEA4F1D164 2021-07-24T05:17:08 None 17.24 None 0.97 None 0.92 None 0.97 None 0.97 None 52.19 None 19.11 None 0.55 None
95368 2021-07-24T05:17:24 /envAirQualityRESPIRA3 RESPIRA RESPIRA:RESPIRA_A4CF1272B60C 2021-07-24T05:17:23 None 120.82 None 2.16 None 2.05 None 2.07 None 2.08 None 63.28 None 20.21 None 0.55 None
95369 2021-07-24T05:18:24 /envAirQualityRESPIRA3 RESPIRA RESPIRA:RESPIRA_240AC4A3EBF8 2021-07-24T05:18:24 None 313.91 None 3.16 None 2.97 None 3.15 None 3.16 None 76.79 None 19.33 None 0.65 None
95375 2021-07-24T05:23:44 /envAirQualityRESPIRA3 RESPIRA RESPIRA:RESPIRA_A4CF12758438 2021-07-24T05:23:44 None 31.98 None 2.01 None 1.9 None 2.01 None 2.01 None 64.28 None 19.69 None 0.61 None
95376 2021-07-24T05:28:21 /envAirQualityRESPIRA3 RESPIRA RESPIRA:RESPIRA_A4CF127501F8 2021-07-24T05:28:21 None 33.87 None 2.59 None 2.44 None 2.58 None 2.59 None 70.79 None 20.12 None 0.64 None
95379 2021-07-24T05:35:45 /envAirQualityRESPIRA3 RESPIRA RESPIRA:RESPIRA_807D3AF35A5C 2021-07-24T05:35:45 None 0 None 3.12 None 2.93 None 3.11 None 3.11 None 79.09 None 16.91 None 0.62 None
95381 2021-07-24T05:41:09 /envAirQualityRESPIRA3 RESPIRA RESPIRA:RESPIRA_30AEA4F1B87C 2021-07-24T05:41:09 None 96.67 None 2.82 None 2.67 None 2.82 None 2.82 None 76.33 None 18.3 None 0.62 None
95382 2021-07-24T06:05:36 /envAirQualityRESPIRA3 RESPIRA RESPIRA:RESPIRA_807D3AF39838 2021-07-24T06:05:35 None 0 None 3.33 None 3.14 None 3.33 None 3.33 None 95.77 None 17.15 None 0.64 None
95383 2021-07-24T06:05:36 /envAirQualityRESPIRA3 RESPIRA RESPIRA:RESPIRA_A4CF1272ACE4 2021-07-24T06:05:36 None 0 None 2.95 None 2.79 None 2.95 None 2.95 None 69.98 None 17.54 None 0.59 None
95374 2021-07-24T05:23:06 /envAirQualityRESPIRA3 RESPIRA RESPIRA:RESPIRA_246F28179F74 2021-07-24T05:23:06 None 16.65 None 1.11 None 1.05 None 1.11 None 1.11 None 45.04 None 23.62 None 0.54 None
95377 2021-07-24T05:30:06 /envAirQualityRESPIRA3 RESPIRA RESPIRA:RESPIRA_A4CF12755D90 2021-07-24T05:30:06 None 7.55 None 3.09 None 2.9 None 3.08 None 3.08 None 69.41 None 19.67 None 0.61 None
95378 2021-07-24T05:33:53 /envAirQualityRESPIRA3 RESPIRA RESPIRA:RESPIRA_807D3AF398EC 2021-07-24T05:33:52 None 86.6 None 2.93 None 2.76 None 2.92 None 2.93 None 94.11 None 15.93 None 0.59 None
95380 2021-07-24T05:40:22 /envAirQualityRESPIRA3 RESPIRA RESPIRA:RESPIRA_807D3AF39F6C 2021-07-24T05:40:22 None 172.05 None 2.7 None 2.55 None 2.7 None 2.7 None -0.35 None 17.44 None 0.46 None
95386 2021-07-24T06:09:11 /envAirQualityRESPIRA3 RESPIRA RESPIRA:RESPIRA_A4CF12750498 2021-07-24T06:09:10 None 0 None 3.49 None 3.3 None 3.49 None 3.49 None 71.63 None 19.96 None 0.57 None
95387 2021-07-24T06:10:12 /envAirQualityRESPIRA3 RESPIRA RESPIRA:RESPIRA_807D3AF39910 2021-07-24T06:10:12 None 23.63 None 1.9 None 1.8 None 1.9 None 1.9 None 37.38 None 30.47 None 0.55 None
95389 2021-07-24T06:17:09 /envAirQualityRESPIRA3 RESPIRA RESPIRA:RESPIRA_30AEA4F1D164 2021-07-24T06:17:09 None 21 None 0.99 None 0.94 None 0.99 None 0.99 None 51.2 None 18.66 None 0.54 None
95390 2021-07-24T06:17:24 /envAirQualityRESPIRA3 RESPIRA RESPIRA:RESPIRA_A4CF1272B60C 2021-07-24T06:17:24 None 120.82 None 2.5 None 2.37 None 2.4 None 2.41 None 67.09 None 19.49 None 0.56 None
95394 2021-07-24T06:19:57 /envAirQualityRESPIRA3 RESPIRA RESPIRA:RESPIRA_240AC4A26E00 2021-07-24T06:19:57 None 1177.57 None 3.92 None 3.69 None 3.91 None 3.92 None 84.64 None 16.76 None 0.58 None
95395 2021-07-24T06:23:04 /envAirQualityRESPIRA3 RESPIRA RESPIRA:RESPIRA_A4CF12755848 2021-07-24T06:23:04 None 13.81 None 2.72 None 2.54 None 2.71 None 2.72 None 63.28 None 18.94 None 0.61 None
95396 2021-07-24T06:23:06 /envAirQualityRESPIRA3 RESPIRA RESPIRA:RESPIRA_246F28179F74 2021-07-24T06:23:06 None 14.77 None 1.08 None 1.02 None 1.08 None 1.08 None 45.1 None 23.6 None 0.53 None
95384 2021-07-24T06:07:29 /envAirQualityRESPIRA3 RESPIRA RESPIRA:RESPIRA_A4CF12755A8C 2021-07-24T06:07:29 None 26.39 None 0.93 None 0.88 None 0.93 None 0.93 None 54.1 None 20.59 None 0.53 None
95385 2021-07-24T06:08:13 /envAirQualityRESPIRA3 RESPIRA RESPIRA:RESPIRA_A4CF1275659C 2021-07-24T06:08:13 None 31.41 None 1.44 None 1.36 None 1.44 None 1.44 None 55.28 None 20.62 None 0.55 None
95388 2021-07-24T06:11:21 /envAirQualityRESPIRA3 RESPIRA RESPIRA:RESPIRA_A4CF1275559C 2021-07-24T06:11:21 None 46.75 None 3.43 None 3.21 None 3.41 None 3.43 None 84.34 None 17.58 None 0.64 None
95391 2021-07-24T06:18:24 /envAirQualityRESPIRA3 RESPIRA RESPIRA:RESPIRA_240AC4A3EBF8 2021-07-24T06:18:24 None 374.11 None 4.13 None 3.8 None 4.1 None 4.12 None 78.59 None 18.5 None 0.64 None
95392 2021-07-24T06:19:33 /envAirQualityRESPIRA3 RESPIRA RESPIRA:RESPIRA_807D3AF3AB0C 2021-07-24T06:19:33 None 0 None 2.47 None 2.34 None 2.47 None 2.47 None 100.55 None 19.19 None 0.59 None
95393 2021-07-24T06:19:49 /envAirQualityRESPIRA3 RESPIRA RESPIRA:RESPIRA_A4CF12752890 2021-07-24T06:19:49 None 65.56 None 4.8 None 3.8 None 4.42 None 4.74 None 55.23 None 23.29 None 0.75 None
95397 2021-07-24T06:23:46 /envAirQualityRESPIRA3 RESPIRA RESPIRA:RESPIRA_A4CF12758438 2021-07-24T06:23:46 None 33.87 None 2.37 None 2.19 None 2.34 None 2.36 None 66.43 None 19.28 None 0.66 None
95399 2021-07-24T06:30:07 /envAirQualityRESPIRA3 RESPIRA RESPIRA:RESPIRA_A4CF12755D90 2021-07-24T06:30:07 None 5.67 None 3.08 None 2.89 None 3.07 None 3.08 None 67.97 None 20.1 None 0.58 None
95403 2021-07-24T06:53:53 /envAirQualityRESPIRA3 RESPIRA RESPIRA:RESPIRA_807D3AF39F6C 2021-07-24T06:53:53 None 172.05 None 3.44 None 3.26 None 3.44 None 3.44 None 2.02 None 19.62 None 0.48 None
95404 2021-07-24T06:59:30 /envAirQualityRESPIRA3 RESPIRA RESPIRA:RESPIRA_807D3AF39F6C 2021-07-24T06:59:29 None 192.74 None 3.94 None 3.72 None 3.94 None 3.94 None 1.77 None 20.05 None 0.47 None
95405 2021-07-24T07:05:37 /envAirQualityRESPIRA3 RESPIRA RESPIRA:RESPIRA_A4CF1272ACE4 2021-07-24T07:05:37 None 0 None 3.12 None 2.94 None 3.11 None 3.12 None 70.04 None 18 None 0.59 None
95398 2021-07-24T06:28:22 /envAirQualityRESPIRA3 RESPIRA RESPIRA:RESPIRA_A4CF127501F8 2021-07-24T06:28:22 None 31.98 None 2.72 None 2.57 None 2.72 None 2.72 None 73.76 None 19.22 None 0.6 None
95400 2021-07-24T06:33:53 /envAirQualityRESPIRA3 RESPIRA RESPIRA:RESPIRA_807D3AF398EC 2021-07-24T06:33:53 None 28.27 None 3.15 None 2.97 None 3.14 None 3.15 None 93.94 None 16.08 None 0.59 None
95401 2021-07-24T06:35:46 /envAirQualityRESPIRA3 RESPIRA RESPIRA:RESPIRA_807D3AF35A5C 2021-07-24T06:35:46 None 0 None 2.28 None 2.15 None 2.28 None 2.28 None 72.28 None 17.49 None 0.59 None
95402 2021-07-24T06:41:43 /envAirQualityRESPIRA3 RESPIRA RESPIRA:RESPIRA_30AEA4F1B87C 2021-07-24T06:41:43 None 92.91 None 2.92 None 2.76 None 2.92 None 2.92 None 74.28 None 18.93 None 0.61 None
95407 2021-07-24T07:07:29 /envAirQualityRESPIRA3 RESPIRA RESPIRA:RESPIRA_A4CF12755A8C 2021-07-24T07:07:29 None 26.39 None 0.83 None 0.79 None 0.83 None 0.83 None 53.26 None 20.65 None 0.54 None
95408 2021-07-24T07:08:13 /envAirQualityRESPIRA3 RESPIRA RESPIRA:RESPIRA_A4CF1275659C 2021-07-24T07:08:13 None 31.41 None 1.46 None 1.38 None 1.46 None 1.46 None 55.53 None 20.64 None 0.55 None
95410 2021-07-24T07:10:13 /envAirQualityRESPIRA3 RESPIRA RESPIRA:RESPIRA_807D3AF39910 2021-07-24T07:10:13 None 25.51 None 2.01 None 1.9 None 2.01 None 2.01 None 37.55 None 30.4 None 0.54 None
95412 2021-07-24T07:17:09 /envAirQualityRESPIRA3 RESPIRA RESPIRA:RESPIRA_30AEA4F1D164 2021-07-24T07:17:09 None 13.48 None 0.77 None 0.73 None 0.77 None 0.77 None 51.86 None 18.58 None 0.55 None
95414 2021-07-24T07:18:25 /envAirQualityRESPIRA3 RESPIRA RESPIRA:RESPIRA_240AC4A3EBF8 2021-07-24T07:18:25 None 411.74 None 3.52 None 3.31 None 3.51 None 3.52 None 75.89 None 19.45 None 0.59 None
95417 2021-07-24T07:19:57 /envAirQualityRESPIRA3 RESPIRA RESPIRA:RESPIRA_240AC4A26E00 2021-07-24T07:19:57 None 513.44 None 4.35 None 4.04 None 4.31 None 4.34 None 63.54 None 22.43 None 0.59 None
95419 2021-07-24T07:23:06 /envAirQualityRESPIRA3 RESPIRA RESPIRA:RESPIRA_246F28179F74 2021-07-24T07:23:06 None 16.65 None 1.08 None 1.02 None 1.08 None 1.08 None 45.26 None 23.62 None 0.53 None
95406 2021-07-24T07:05:36 /envAirQualityRESPIRA3 RESPIRA RESPIRA:RESPIRA_807D3AF39838 2021-07-24T07:05:36 None 0 None 3.19 None 3.01 None 3.19 None 3.19 None 94.66 None 17.36 None 0.62 None
95409 2021-07-24T07:09:11 /envAirQualityRESPIRA3 RESPIRA RESPIRA:RESPIRA_A4CF12750498 2021-07-24T07:09:11 None 0 None 2.74 None 2.59 None 2.74 None 2.74 None 63.88 None 22.26 None 0.61 None
95411 2021-07-24T07:11:21 /envAirQualityRESPIRA3 RESPIRA RESPIRA:RESPIRA_A4CF1275559C 2021-07-24T07:11:21 None 48.63 None 2.89 None 2.73 None 2.89 None 2.89 None 61.34 None 24.24 None 0.62 None
95413 2021-07-24T07:17:24 /envAirQualityRESPIRA3 RESPIRA RESPIRA:RESPIRA_A4CF1272B60C 2021-07-24T07:17:24 None 122.7 None 2.71 None 2.56 None 2.6 None 2.61 None 64.81 None 20.97 None 0.55 None
95415 2021-07-24T07:19:34 /envAirQualityRESPIRA3 RESPIRA RESPIRA:RESPIRA_807D3AF3AB0C 2021-07-24T07:19:33 None 0 None 3.18 None 3.01 None 3.18 None 3.18 None 100.71 None 19.03 None 0.61 None
95416 2021-07-24T07:19:50 /envAirQualityRESPIRA3 RESPIRA RESPIRA:RESPIRA_A4CF12752890 2021-07-24T07:19:49 None 69.33 None 5.63 None 5.2 None 5.57 None 5.62 None 56.18 None 23.24 None 0.64 None
95418 2021-07-24T07:23:04 /envAirQualityRESPIRA3 RESPIRA RESPIRA:RESPIRA_A4CF12755848 2021-07-24T07:23:04 None 13.81 None 2.74 None 2.56 None 2.72 None 2.74 None 60.79 None 20.29 None 0.6 None
95420 2021-07-24T07:23:46 /envAirQualityRESPIRA3 RESPIRA RESPIRA:RESPIRA_A4CF12758438 2021-07-24T07:23:46 None 35.75 None 2.43 None 2.27 None 2.42 None 2.43 None 62.91 None 20.98 None 0.61 None
95422 2021-07-24T07:30:07 /envAirQualityRESPIRA3 RESPIRA RESPIRA:RESPIRA_A4CF12755D90 2021-07-24T07:30:07 None 5.67 None 2.73 None 2.59 None 2.73 None 2.73 None 56.17 None 24.13 None 0.56 None
95423 2021-07-24T07:33:53 /envAirQualityRESPIRA3 RESPIRA RESPIRA:RESPIRA_807D3AF398EC 2021-07-24T07:33:53 None 176.9 None 3.46 None 3.23 None 3.44 None 3.46 None 91.45 None 17.25 None 0.58 None
95425 2021-07-24T07:41:44 /envAirQualityRESPIRA3 RESPIRA RESPIRA:RESPIRA_30AEA4F1B87C 2021-07-24T07:41:44 None 89.14 None 2.96 None 2.78 None 2.95 None 2.96 None 71.92 None 19.25 None 0.59 None
95421 2021-07-24T07:28:22 /envAirQualityRESPIRA3 RESPIRA RESPIRA:RESPIRA_A4CF127501F8 2021-07-24T07:28:22 None 33.87 None 2.62 None 2.48 None 2.62 None 2.62 None 70.28 None 20.27 None 0.6 None
95424 2021-07-24T07:35:46 /envAirQualityRESPIRA3 RESPIRA RESPIRA:RESPIRA_807D3AF35A5C 2021-07-24T07:35:46 None 0 None 1.94 None 1.84 None 1.94 None 1.94 None 66.69 None 18.5 None 0.6 None
95426 2021-07-24T08:00:26 /envAirQualityRESPIRA3 RESPIRA RESPIRA:RESPIRA_807D3AF39F6C 2021-07-24T08:00:26 None 190.86 None 13.34 None 7.17 None 10.5 None 12.87 None -2.29 None 21.87 None 0.68 None
95427 2021-07-24T08:05:37 /envAirQualityRESPIRA3 RESPIRA RESPIRA:RESPIRA_A4CF1272ACE4 2021-07-24T08:05:37 None 0 None 3.35 None 3.16 None 3.34 None 3.35 None 65.93 None 19.35 None 0.53 None
95430 2021-07-24T08:08:14 /envAirQualityRESPIRA3 RESPIRA RESPIRA:RESPIRA_A4CF1275659C 2021-07-24T08:08:13 None 33.29 None 1.59 None 1.5 None 1.59 None 1.59 None 56.15 None 20.65 None 0.55 None
95431 2021-07-24T08:09:11 /envAirQualityRESPIRA3 RESPIRA RESPIRA:RESPIRA_A4CF12750498 2021-07-24T08:09:11 None 0 None 2.92 None 2.76 None 2.92 None 2.92 None 59 None 23.98 None 0.6 None
95433 2021-07-24T08:11:21 /envAirQualityRESPIRA3 RESPIRA RESPIRA:RESPIRA_A4CF1275559C 2021-07-24T08:11:21 None 50.51 None 2.88 None 2.72 None 2.88 None 2.88 None 54.36 None 26.35 None 0.58 None
95434 2021-07-24T08:17:10 /envAirQualityRESPIRA3 RESPIRA RESPIRA:RESPIRA_30AEA4F1D164 2021-07-24T08:17:10 None 13.48 None 0.53 None 0.51 None 0.53 None 0.53 None 52.26 None 18.61 None 0.5 None
95435 2021-07-24T08:17:24 /envAirQualityRESPIRA3 RESPIRA RESPIRA:RESPIRA_A4CF1272B60C 2021-07-24T08:17:24 None 133.99 None 2.73 None 2.59 None 2.62 None 2.62 None 56.42 None 23.99 None 0.56 None
95437 2021-07-24T08:19:34 /envAirQualityRESPIRA3 RESPIRA RESPIRA:RESPIRA_807D3AF3AB0C 2021-07-24T08:19:34 None 0 None 3.32 None 3.14 None 3.32 None 3.32 None 88.67 None 20.17 None 0.58 None
95439 2021-07-24T08:19:58 /envAirQualityRESPIRA3 RESPIRA RESPIRA:RESPIRA_240AC4A26E00 2021-07-24T08:19:57 None 280.15 None 4.36 None 4.03 None 4.32 None 4.36 None 61.4 None 22.73 None 0.58 None
95428 2021-07-24T08:05:36 /envAirQualityRESPIRA3 RESPIRA RESPIRA:RESPIRA_807D3AF39838 2021-07-24T08:05:36 None 0 None 3.16 None 2.98 None 3.15 None 3.16 None 87.49 None 18.41 None 0.59 None

Additional Information

Field Value
Format CSV
License Creative Commons Attribution
formatCSV
package id12391b15-471b-47e2-85fc-4ae3187173a7
revision idce93c750-3e20-4f4a-8ae0-66e391a217ba
stateactive